sensor_id;sensor_type;location;lat;lon;timestamp;temperature;humidity
71563;DHT22;59391;52.504;13.438;2022-09-01T00:01:34;19.30;50.20
71563;DHT22;59391;52.504;13.438;2022-09-01T00:04:04;19.30;50.30
71563;DHT22;59391;52.504;13.438;2022-09-01T00:06:32;19.30;50.30
71563;DHT22;59391;52.504;13.438;2022-09-01T00:09:02;19.30;50.30
71563;DHT22;59391;52.504;13.438;2022-09-01T00:11:32;19.30;50.40
71563;DHT22;59391;52.504;13.438;2022-09-01T00:13:59;19.30;50.30
71563;DHT22;59391;52.504;13.438;2022-09-01T00:16:26;19.20;50.30
71563;DHT22;59391;52.504;13.438;2022-09-01T00:18:53;19.30;50.20
71563;DHT22;59391;52.504;13.438;2022-09-01T00:21:32;19.30;50.10
71563;DHT22;59391;52.504;13.438;2022-09-01T00:24:00;19.20;50.10
71563;DHT22;59391;52.504;13.438;2022-09-01T00:26:27;19.20;50.20
71563;DHT22;59391;52.504;13.438;2022-09-01T00:28:53;19.20;50.00
71563;DHT22;59391;52.504;13.438;2022-09-01T00:31:20;19.20;50.10
71563;DHT22;59391;52.504;13.438;2022-09-01T00:33:47;19.20;49.90
71563;DHT22;59391;52.504;13.438;2022-09-01T00:36:14;19.20;49.90
71563;DHT22;59391;52.504;13.438;2022-09-01T00:38:41;19.20;49.80
71563;DHT22;59391;52.504;13.438;2022-09-01T00:41:07;19.20;49.70
71563;DHT22;59391;52.504;13.438;2022-09-01T00:43:43;19.10;49.40
71563;DHT22;59391;52.504;13.438;2022-09-01T00:46:20;19.10;49.60
71563;DHT22;59391;52.504;13.438;2022-09-01T00:49:08;19.10;49.50
71563;DHT22;59391;52.504;13.438;2022-09-01T00:51:40;19.20;49.40
71563;DHT22;59391;52.504;13.438;2022-09-01T00:54:11;19.10;49.50
71563;DHT22;59391;52.504;13.438;2022-09-01T00:56:41;19.10;49.40
71563;DHT22;59391;52.504;13.438;2022-09-01T00:59:09;19.10;49.30
71563;DHT22;59391;52.504;13.438;2022-09-01T01:01:37;19.10;49.50
71563;DHT22;59391;52.504;13.438;2022-09-01T01:04:04;19.10;49.40
71563;DHT22;59391;52.504;13.438;2022-09-01T01:06:52;19.10;49.70
71563;DHT22;59391;52.504;13.438;2022-09-01T01:09:29;19.00;49.60
71563;DHT22;59391;52.504;13.438;2022-09-01T01:12:02;19.00;49.70
71563;DHT22;59391;52.504;13.438;2022-09-01T01:14:29;19.00;49.80
71563;DHT22;59391;52.504;13.438;2022-09-01T01:16:56;19.00;49.90
71563;DHT22;59391;52.504;13.438;2022-09-01T01:22:52;18.90;50.20
71563;DHT22;59391;52.504;13.438;2022-09-01T01:25:49;18.90;50.30
71563;DHT22;59391;52.504;13.438;2022-09-01T01:28:29;18.90;50.20
71563;DHT22;59391;52.504;13.438;2022-09-01T01:31:02;18.90;50.60
71563;DHT22;59391;52.504;13.438;2022-09-01T01:33:34;18.90;50.70
71563;DHT22;59391;52.504;13.438;2022-09-01T01:36:30;18.80;50.70
71563;DHT22;59391;52.504;13.438;2022-09-01T01:39:03;18.80;50.80
71563;DHT22;59391;52.504;13.438;2022-09-01T01:41:33;18.80;51.10
71563;DHT22;59391;52.504;13.438;2022-09-01T01:44:02;18.70;51.40
71563;DHT22;59391;52.504;13.438;2022-09-01T01:46:31;18.70;51.60
71563;DHT22;59391;52.504;13.438;2022-09-01T01:48:58;18.70;51.60
71563;DHT22;59391;52.504;13.438;2022-09-01T01:51:27;18.70;52.00
71563;DHT22;59391;52.504;13.438;2022-09-01T01:53:55;18.60;52.10
71563;DHT22;59391;52.504;13.438;2022-09-01T01:56:22;18.60;52.30
71563;DHT22;59391;52.504;13.438;2022-09-01T01:58:53;18.60;52.20
71563;DHT22;59391;52.504;13.438;2022-09-01T02:01:26;18.60;52.40
71563;DHT22;59391;52.504;13.438;2022-09-01T02:03:54;18.60;52.70
71563;DHT22;59391;52.504;13.438;2022-09-01T02:06:24;18.60;52.70
71563;DHT22;59391;52.504;13.438;2022-09-01T02:08:53;18.50;52.70
71563;DHT22;59391;52.504;13.438;2022-09-01T02:11:24;18.50;52.80
71563;DHT22;59391;52.504;13.438;2022-09-01T02:13:54;18.50;52.90
71563;DHT22;59391;52.504;13.438;2022-09-01T02:16:23;18.50;53.00
71563;DHT22;59391;52.504;13.438;2022-09-01T02:18:51;18.50;53.10
71563;DHT22;59391;52.504;13.438;2022-09-01T02:21:19;18.50;53.00
71563;DHT22;59391;52.504;13.438;2022-09-01T02:23:50;18.40;53.30
71563;DHT22;59391;52.504;13.438;2022-09-01T02:26:29;18.40;53.40
71563;DHT22;59391;52.504;13.438;2022-09-01T02:29:07;18.40;53.40
71563;DHT22;59391;52.504;13.438;2022-09-01T02:31:43;18.40;53.60
71563;DHT22;59391;52.504;13.438;2022-09-01T02:34:11;18.30;53.50
71563;DHT22;59391;52.504;13.438;2022-09-01T02:36:40;18.30;53.90
71563;DHT22;59391;52.504;13.438;2022-09-01T02:39:16;18.30;53.80
71563;DHT22;59391;52.504;13.438;2022-09-01T02:41:45;18.30;53.80
71563;DHT22;59391;52.504;13.438;2022-09-01T02:44:11;18.30;53.90
71563;DHT22;59391;52.504;13.438;2022-09-01T02:46:40;18.20;54.10
71563;DHT22;59391;52.504;13.438;2022-09-01T02:49:13;18.20;54.00
71563;DHT22;59391;52.504;13.438;2022-09-01T02:51:47;18.20;54.50
71563;DHT22;59391;52.504;13.438;2022-09-01T02:54:15;18.20;54.40
71563;DHT22;59391;52.504;13.438;2022-09-01T02:56:43;18.10;54.50
71563;DHT22;59391;52.504;13.438;2022-09-01T02:59:13;18.10;54.60
71563;DHT22;59391;52.504;13.438;2022-09-01T03:01:39;18.10;54.80
71563;DHT22;59391;52.504;13.438;2022-09-01T03:04:07;18.10;55.00
71563;DHT22;59391;52.504;13.438;2022-09-01T03:06:34;18.00;55.20
71563;DHT22;59391;52.504;13.438;2022-09-01T03:09:04;18.00;54.90
71563;DHT22;59391;52.504;13.438;2022-09-01T03:11:34;17.90;55.20
71563;DHT22;59391;52.504;13.438;2022-09-01T03:14:02;17.90;55.20
71563;DHT22;59391;52.504;13.438;2022-09-01T03:16:28;17.90;55.50
71563;DHT22;59391;52.504;13.438;2022-09-01T03:18:57;17.80;55.60
71563;DHT22;59391;52.504;13.438;2022-09-01T03:21:24;17.70;55.60
71563;DHT22;59391;52.504;13.438;2022-09-01T03:23:52;17.70;55.70
71563;DHT22;59391;52.504;13.438;2022-09-01T03:26:19;17.60;55.70
71563;DHT22;59391;52.504;13.438;2022-09-01T03:28:47;17.60;56.20
71563;DHT22;59391;52.504;13.438;2022-09-01T03:31:14;17.60;56.20
71563;DHT22;59391;52.504;13.438;2022-09-01T03:33:40;17.50;56.30
71563;DHT22;59391;52.504;13.438;2022-09-01T03:36:07;17.50;56.40
71563;DHT22;59391;52.504;13.438;2022-09-01T03:38:33;17.40;56.60
71563;DHT22;59391;52.504;13.438;2022-09-01T03:41:02;17.40;56.80
71563;DHT22;59391;52.504;13.438;2022-09-01T03:43:31;17.30;56.90
71563;DHT22;59391;52.504;13.438;2022-09-01T03:45:58;17.30;56.90
71563;DHT22;59391;52.504;13.438;2022-09-01T03:48:26;17.30;57.00
71563;DHT22;59391;52.504;13.438;2022-09-01T03:50:55;17.20;57.50
71563;DHT22;59391;52.504;13.438;2022-09-01T03:53:24;17.20;57.60
71563;DHT22;59391;52.504;13.438;2022-09-01T03:55:52;17.10;57.50
71563;DHT22;59391;52.504;13.438;2022-09-01T03:58:19;17.10;57.90
71563;DHT22;59391;52.504;13.438;2022-09-01T04:00:48;17.00;58.00
71563;DHT22;59391;52.504;13.438;2022-09-01T04:03:20;17.00;57.90
71563;DHT22;59391;52.504;13.438;2022-09-01T04:05:49;17.00;58.10
71563;DHT22;59391;52.504;13.438;2022-09-01T04:08:17;17.00;58.00
71563;DHT22;59391;52.504;13.438;2022-09-01T04:10:47;16.90;58.20
71563;DHT22;59391;52.504;13.438;2022-09-01T04:13:20;16.90;58.20
71563;DHT22;59391;52.504;13.438;2022-09-01T04:15:48;16.80;58.70
71563;DHT22;59391;52.504;13.438;2022-09-01T04:18:15;16.80;58.70
71563;DHT22;59391;52.504;13.438;2022-09-01T04:20:51;16.80;59.00
71563;DHT22;59391;52.504;13.438;2022-09-01T04:23:26;16.70;58.90
71563;DHT22;59391;52.504;13.438;2022-09-01T04:26:07;16.70;59.30
71563;DHT22;59391;52.504;13.438;2022-09-01T04:28:42;16.70;59.10
71563;DHT22;59391;52.504;13.438;2022-09-01T04:31:13;16.60;59.40
71563;DHT22;59391;52.504;13.438;2022-09-01T04:33:45;16.60;59.30
71563;DHT22;59391;52.504;13.438;2022-09-01T04:36:19;16.60;59.60
71563;DHT22;59391;52.504;13.438;2022-09-01T04:38:49;16.50;59.40
71563;DHT22;59391;52.504;13.438;2022-09-01T04:41:19;16.50;59.50
71563;DHT22;59391;52.504;13.438;2022-09-01T04:43:48;16.50;59.60
71563;DHT22;59391;52.504;13.438;2022-09-01T04:46:17;16.50;59.70
71563;DHT22;59391;52.504;13.438;2022-09-01T04:48:44;16.50;59.80
71563;DHT22;59391;52.504;13.438;2022-09-01T04:51:11;16.40;59.80
71563;DHT22;59391;52.504;13.438;2022-09-01T04:53:38;16.40;59.70
71563;DHT22;59391;52.504;13.438;2022-09-01T04:56:05;16.40;60.00
71563;DHT22;59391;52.504;13.438;2022-09-01T04:58:32;16.30;60.20
71563;DHT22;59391;52.504;13.438;2022-09-01T05:00:59;16.30;60.20
71563;DHT22;59391;52.504;13.438;2022-09-01T05:03:25;16.30;60.20
71563;DHT22;59391;52.504;13.438;2022-09-01T05:05:51;16.30;60.40
71563;DHT22;59391;52.504;13.438;2022-09-01T05:08:22;16.30;60.30
71563;DHT22;59391;52.504;13.438;2022-09-01T05:10:50;16.30;60.20
71563;DHT22;59391;52.504;13.438;2022-09-01T05:13:18;16.30;60.30
71563;DHT22;59391;52.504;13.438;2022-09-01T05:15:57;16.30;60.20
71563;DHT22;59391;52.504;13.438;2022-09-01T05:18:26;16.30;60.30
71563;DHT22;59391;52.504;13.438;2022-09-01T05:20:53;16.30;60.40
71563;DHT22;59391;52.504;13.438;2022-09-01T05:23:20;16.30;60.40
71563;DHT22;59391;52.504;13.438;2022-09-01T05:25:50;16.30;60.40
71563;DHT22;59391;52.504;13.438;2022-09-01T05:28:18;16.30;60.30
71563;DHT22;59391;52.504;13.438;2022-09-01T05:30:45;16.30;60.70
71563;DHT22;59391;52.504;13.438;2022-09-01T05:33:13;16.30;60.60
71563;DHT22;59391;52.504;13.438;2022-09-01T05:35:52;16.30;60.50
71563;DHT22;59391;52.504;13.438;2022-09-01T05:38:20;16.30;62.30
71563;DHT22;59391;52.504;13.438;2022-09-01T05:41:02;16.30;61.90
71563;DHT22;59391;52.504;13.438;2022-09-01T05:43:34;16.30;62.00
71563;DHT22;59391;52.504;13.438;2022-09-01T05:46:00;16.30;61.30
71563;DHT22;59391;52.504;13.438;2022-09-01T05:48:30;16.30;61.30
71563;DHT22;59391;52.504;13.438;2022-09-01T05:50:57;16.20;61.10
71563;DHT22;59391;52.504;13.438;2022-09-01T05:53:25;16.20;61.20
71563;DHT22;59391;52.504;13.438;2022-09-01T05:55:54;16.20;61.50
71563;DHT22;59391;52.504;13.438;2022-09-01T05:58:24;16.20;61.60
71563;DHT22;59391;52.504;13.438;2022-09-01T06:00:52;16.20;61.40
71563;DHT22;59391;52.504;13.438;2022-09-01T06:03:20;16.20;61.10
71563;DHT22;59391;52.504;13.438;2022-09-01T06:05:47;16.20;61.40
71563;DHT22;59391;52.504;13.438;2022-09-01T06:08:23;16.20;61.70
71563;DHT22;59391;52.504;13.438;2022-09-01T06:10:50;16.20;61.60
71563;DHT22;59391;52.504;13.438;2022-09-01T06:13:18;16.20;61.70
71563;DHT22;59391;52.504;13.438;2022-09-01T06:15:47;16.30;61.40
71563;DHT22;59391;52.504;13.438;2022-09-01T06:18:14;16.30;61.10
71563;DHT22;59391;52.504;13.438;2022-09-01T06:20:44;16.30;61.10
71563;DHT22;59391;52.504;13.438;2022-09-01T06:23:16;16.30;61.20
71563;DHT22;59391;52.504;13.438;2022-09-01T06:25:45;16.40;61.10
71563;DHT22;59391;52.504;13.438;2022-09-01T06:28:13;16.40;60.90
71563;DHT22;59391;52.504;13.438;2022-09-01T06:30:40;16.50;61.10
71563;DHT22;59391;52.504;13.438;2022-09-01T06:33:07;16.50;60.80
71563;DHT22;59391;52.504;13.438;2022-09-01T06:35:38;16.60;60.90
71563;DHT22;59391;52.504;13.438;2022-09-01T06:38:07;16.60;60.60
71563;DHT22;59391;52.504;13.438;2022-09-01T06:40:35;16.70;60.60
71563;DHT22;59391;52.504;13.438;2022-09-01T06:43:06;16.80;60.50
71563;DHT22;59391;52.504;13.438;2022-09-01T06:45:38;16.80;60.30
71563;DHT22;59391;52.504;13.438;2022-09-01T06:48:07;16.90;59.90
71563;DHT22;59391;52.504;13.438;2022-09-01T06:50:34;16.90;60.10
71563;DHT22;59391;52.504;13.438;2022-09-01T06:53:00;17.00;60.20
71563;DHT22;59391;52.504;13.438;2022-09-01T06:55:36;17.00;59.80
71563;DHT22;59391;52.504;13.438;2022-09-01T06:58:07;17.10;60.10
71563;DHT22;59391;52.504;13.438;2022-09-01T07:00:38;17.10;59.50
71563;DHT22;59391;52.504;13.438;2022-09-01T07:03:07;17.20;59.30
71563;DHT22;59391;52.504;13.438;2022-09-01T07:05:43;17.20;59.00
71563;DHT22;59391;52.504;13.438;2022-09-01T07:08:13;17.30;58.90
71563;DHT22;59391;52.504;13.438;2022-09-01T07:10:50;17.30;58.60
71563;DHT22;59391;52.504;13.438;2022-09-01T07:13:21;17.40;58.40
71563;DHT22;59391;52.504;13.438;2022-09-01T07:15:52;17.50;58.20
71563;DHT22;59391;52.504;13.438;2022-09-01T07:18:21;17.50;58.30
71563;DHT22;59391;52.504;13.438;2022-09-01T07:20:53;17.60;58.10
71563;DHT22;59391;52.504;13.438;2022-09-01T07:23:20;17.60;57.80
71563;DHT22;59391;52.504;13.438;2022-09-01T07:25:47;17.70;57.40
71563;DHT22;59391;52.504;13.438;2022-09-01T07:28:15;17.80;57.00
71563;DHT22;59391;52.504;13.438;2022-09-01T07:30:47;17.80;56.80
71563;DHT22;59391;52.504;13.438;2022-09-01T07:33:18;17.90;56.50
71563;DHT22;59391;52.504;13.438;2022-09-01T07:35:50;17.90;56.50
71563;DHT22;59391;52.504;13.438;2022-09-01T07:38:20;18.00;56.00
71563;DHT22;59391;52.504;13.438;2022-09-01T07:40:47;18.00;56.20
71563;DHT22;59391;52.504;13.438;2022-09-01T07:43:19;18.10;56.20
71563;DHT22;59391;52.504;13.438;2022-09-01T07:45:50;18.20;55.60
71563;DHT22;59391;52.504;13.438;2022-09-01T07:48:20;18.30;55.70
71563;DHT22;59391;52.504;13.438;2022-09-01T07:50:51;18.30;55.40
71563;DHT22;59391;52.504;13.438;2022-09-01T07:53:26;18.40;54.90
71563;DHT22;59391;52.504;13.438;2022-09-01T07:56:08;18.40;54.50
71563;DHT22;59391;52.504;13.438;2022-09-01T07:58:37;18.50;54.20
71563;DHT22;59391;52.504;13.438;2022-09-01T08:01:09;18.60;54.30
71563;DHT22;59391;52.504;13.438;2022-09-01T08:03:40;18.70;54.30
71563;DHT22;59391;52.504;13.438;2022-09-01T08:06:10;18.70;54.30
71563;DHT22;59391;52.504;13.438;2022-09-01T08:08:38;18.80;53.70
71563;DHT22;59391;52.504;13.438;2022-09-01T08:11:05;18.90;53.50
71563;DHT22;59391;52.504;13.438;2022-09-01T08:13:33;19.00;53.30
71563;DHT22;59391;52.504;13.438;2022-09-01T08:16:04;19.10;53.00
71563;DHT22;59391;52.504;13.438;2022-09-01T08:18:33;19.20;52.70
71563;DHT22;59391;52.504;13.438;2022-09-01T08:20:59;19.30;53.20
71563;DHT22;59391;52.504;13.438;2022-09-01T08:23:30;19.40;53.30
71563;DHT22;59391;52.504;13.438;2022-09-01T08:25:56;19.60;53.00
71563;DHT22;59391;52.504;13.438;2022-09-01T08:28:21;19.70;52.30
71563;DHT22;59391;52.504;13.438;2022-09-01T08:30:47;19.80;51.80
71563;DHT22;59391;52.504;13.438;2022-09-01T08:33:13;19.90;51.70
71563;DHT22;59391;52.504;13.438;2022-09-01T08:35:40;20.10;51.80
71563;DHT22;59391;52.504;13.438;2022-09-01T08:38:08;20.30;50.70
71563;DHT22;59391;52.504;13.438;2022-09-01T08:40:34;20.60;50.40
71563;DHT22;59391;52.504;13.438;2022-09-01T08:43:18;21.00;50.80
71563;DHT22;59391;52.504;13.438;2022-09-01T08:45:57;21.40;48.50
71563;DHT22;59391;52.504;13.438;2022-09-01T08:51:45;22.50;44.20
71563;DHT22;59391;52.504;13.438;2022-09-01T08:54:36;23.00;43.50
71563;DHT22;59391;52.504;13.438;2022-09-01T08:57:24;23.60;42.00
71563;DHT22;59391;52.504;13.438;2022-09-01T08:59:55;24.00;41.00
71563;DHT22;59391;52.504;13.438;2022-09-01T09:09:00;25.50;38.50
71563;DHT22;59391;52.504;13.438;2022-09-01T09:14:54;26.50;37.30
71563;DHT22;59391;52.504;13.438;2022-09-01T09:17:41;26.90;36.20
71563;DHT22;59391;52.504;13.438;2022-09-01T09:20:11;27.30;34.40
71563;DHT22;59391;52.504;13.438;2022-09-01T09:22:38;27.50;34.90
71563;DHT22;59391;52.504;13.438;2022-09-01T09:25:09;27.80;33.70
71563;DHT22;59391;52.504;13.438;2022-09-01T09:27:41;27.90;33.40
71563;DHT22;59391;52.504;13.438;2022-09-01T09:30:14;28.00;33.40
71563;DHT22;59391;52.504;13.438;2022-09-01T09:35:27;28.30;33.00
71563;DHT22;59391;52.504;13.438;2022-09-01T09:43:31;28.40;32.40
71563;DHT22;59391;52.504;13.438;2022-09-01T09:49:27;28.50;32.70
71563;DHT22;59391;52.504;13.438;2022-09-01T09:54:28;28.80;31.50
71563;DHT22;59391;52.504;13.438;2022-09-01T10:02:20;29.40;30.60
71563;DHT22;59391;52.504;13.438;2022-09-01T10:04:50;29.50;29.80
71563;DHT22;59391;52.504;13.438;2022-09-01T10:07:28;29.60;30.20
71563;DHT22;59391;52.504;13.438;2022-09-01T10:10:00;29.70;29.30
71563;DHT22;59391;52.504;13.438;2022-09-01T10:12:29;29.70;29.00
71563;DHT22;59391;52.504;13.438;2022-09-01T10:15:03;29.80;29.00
71563;DHT22;59391;52.504;13.438;2022-09-01T10:17:41;29.80;28.80
71563;DHT22;59391;52.504;13.438;2022-09-01T10:20:13;29.80;28.90
71563;DHT22;59391;52.504;13.438;2022-09-01T10:22:42;29.70;28.60
71563;DHT22;59391;52.504;13.438;2022-09-01T10:25:15;29.60;28.80
71563;DHT22;59391;52.504;13.438;2022-09-01T10:28:16;29.60;28.90
71563;DHT22;59391;52.504;13.438;2022-09-01T10:30:51;29.50;29.10
71563;DHT22;59391;52.504;13.438;2022-09-01T10:33:20;29.40;28.40
71563;DHT22;59391;52.504;13.438;2022-09-01T10:35:55;29.30;28.00
71563;DHT22;59391;52.504;13.438;2022-09-01T10:38:28;29.10;28.30
71563;DHT22;59391;52.504;13.438;2022-09-01T10:40:58;28.80;28.20
71563;DHT22;59391;52.504;13.438;2022-09-01T10:43:47;28.60;28.90
71563;DHT22;59391;52.504;13.438;2022-09-01T10:48:53;28.40;29.20
71563;DHT22;59391;52.504;13.438;2022-09-01T10:53:52;28.10;29.20
71563;DHT22;59391;52.504;13.438;2022-09-01T10:56:43;27.80;29.50
71563;DHT22;59391;52.504;13.438;2022-09-01T11:04:20;27.70;29.90
71563;DHT22;59391;52.504;13.438;2022-09-01T11:12:11;28.30;29.00
71563;DHT22;59391;52.504;13.438;2022-09-01T11:15:00;28.60;28.50
71563;DHT22;59391;52.504;13.438;2022-09-01T11:17:35;28.80;28.00
71563;DHT22;59391;52.504;13.438;2022-09-01T11:20:09;29.00;27.90
71563;DHT22;59391;52.504;13.438;2022-09-01T11:23:11;29.20;27.90
71563;DHT22;59391;52.504;13.438;2022-09-01T11:25:54;29.40;28.00
71563;DHT22;59391;52.504;13.438;2022-09-01T11:33:42;29.30;27.20
71563;DHT22;59391;52.504;13.438;2022-09-01T11:36:15;29.20;27.30
71563;DHT22;59391;52.504;13.438;2022-09-01T11:47:38;28.60;28.20
71563;DHT22;59391;52.504;13.438;2022-09-01T11:50:16;28.70;28.10
71563;DHT22;59391;52.504;13.438;2022-09-01T11:52:56;28.80;28.30
71563;DHT22;59391;52.504;13.438;2022-09-01T11:58:00;28.70;27.40
71563;DHT22;59391;52.504;13.438;2022-09-01T12:00:34;28.60;27.20
71563;DHT22;59391;52.504;13.438;2022-09-01T12:03:09;28.40;27.70
71563;DHT22;59391;52.504;13.438;2022-09-01T12:05:46;28.20;27.90
71563;DHT22;59391;52.504;13.438;2022-09-01T12:08:18;28.00;28.20
71563;DHT22;59391;52.504;13.438;2022-09-01T12:10:46;27.80;28.00
71563;DHT22;59391;52.504;13.438;2022-09-01T12:13:23;27.50;28.40
71563;DHT22;59391;52.504;13.438;2022-09-01T12:15:57;27.30;28.80
71563;DHT22;59391;52.504;13.438;2022-09-01T12:18:35;27.10;28.80
71563;DHT22;59391;52.504;13.438;2022-09-01T12:21:18;27.00;29.20
71563;DHT22;59391;52.504;13.438;2022-09-01T12:23:50;26.80;28.70
71563;DHT22;59391;52.504;13.438;2022-09-01T12:26:24;26.80;28.90
71563;DHT22;59391;52.504;13.438;2022-09-01T12:28:51;26.70;30.00
71563;DHT22;59391;52.504;13.438;2022-09-01T12:31:24;26.60;31.20
71563;DHT22;59391;52.504;13.438;2022-09-01T12:33:52;26.40;31.00
71563;DHT22;59391;52.504;13.438;2022-09-01T12:37:00;26.30;31.50
71563;DHT22;59391;52.504;13.438;2022-09-01T12:39:42;26.10;31.90
71563;DHT22;59391;52.504;13.438;2022-09-01T12:45:04;25.70;32.60
71563;DHT22;59391;52.504;13.438;2022-09-01T12:52:44;25.20;33.30
71563;DHT22;59391;52.504;13.438;2022-09-01T12:55:19;25.10;33.70
71563;DHT22;59391;52.504;13.438;2022-09-01T12:57:48;25.00;33.70
71563;DHT22;59391;52.504;13.438;2022-09-01T13:00:20;24.90;34.20
71563;DHT22;59391;52.504;13.438;2022-09-01T13:03:13;24.90;34.10
71563;DHT22;59391;52.504;13.438;2022-09-01T13:05:44;24.80;34.00
71563;DHT22;59391;52.504;13.438;2022-09-01T13:08:22;24.80;34.20
71563;DHT22;59391;52.504;13.438;2022-09-01T13:11:00;24.80;34.10
71563;DHT22;59391;52.504;13.438;2022-09-01T13:13:29;24.80;34.60
71563;DHT22;59391;52.504;13.438;2022-09-01T13:15:57;24.90;34.50
71563;DHT22;59391;52.504;13.438;2022-09-01T13:18:32;24.90;34.90
71563;DHT22;59391;52.504;13.438;2022-09-01T13:20:59;25.00;34.60
71563;DHT22;59391;52.504;13.438;2022-09-01T13:23:25;25.20;33.60
71563;DHT22;59391;52.504;13.438;2022-09-01T13:25:51;25.30;33.70
71563;DHT22;59391;52.504;13.438;2022-09-01T13:28:17;25.40;31.80
71563;DHT22;59391;52.504;13.438;2022-09-01T13:30:49;25.60;32.00
71563;DHT22;59391;52.504;13.438;2022-09-01T13:33:18;25.70;31.80
71563;DHT22;59391;52.504;13.438;2022-09-01T13:35:44;25.70;32.20
71563;DHT22;59391;52.504;13.438;2022-09-01T13:38:09;25.70;31.30
71563;DHT22;59391;52.504;13.438;2022-09-01T13:40:36;25.70;31.60
71563;DHT22;59391;52.504;13.438;2022-09-01T13:43:01;25.70;32.00
71563;DHT22;59391;52.504;13.438;2022-09-01T13:45:29;25.60;32.00
71563;DHT22;59391;52.504;13.438;2022-09-01T13:47:54;25.60;32.00
71563;DHT22;59391;52.504;13.438;2022-09-01T13:50:21;25.50;32.00
71563;DHT22;59391;52.504;13.438;2022-09-01T13:52:51;25.50;31.80
71563;DHT22;59391;52.504;13.438;2022-09-01T13:55:31;25.40;31.90
71563;DHT22;59391;52.504;13.438;2022-09-01T13:57:59;25.30;32.20
71563;DHT22;59391;52.504;13.438;2022-09-01T14:00:28;25.30;31.90
71563;DHT22;59391;52.504;13.438;2022-09-01T14:02:59;25.20;31.80
71563;DHT22;59391;52.504;13.438;2022-09-01T14:05:30;25.20;32.50
71563;DHT22;59391;52.504;13.438;2022-09-01T14:07:58;25.20;32.20
71563;DHT22;59391;52.504;13.438;2022-09-01T14:10:25;25.20;32.30
71563;DHT22;59391;52.504;13.438;2022-09-01T14:12:52;25.20;32.60
71563;DHT22;59391;52.504;13.438;2022-09-01T14:15:20;25.20;32.90
71563;DHT22;59391;52.504;13.438;2022-09-01T14:17:49;25.20;33.60
71563;DHT22;59391;52.504;13.438;2022-09-01T14:20:19;25.20;33.50
71563;DHT22;59391;52.504;13.438;2022-09-01T14:22:47;25.20;33.50
71563;DHT22;59391;52.504;13.438;2022-09-01T14:25:16;25.20;33.80
71563;DHT22;59391;52.504;13.438;2022-09-01T14:27:44;25.20;33.40
71563;DHT22;59391;52.504;13.438;2022-09-01T14:30:14;25.20;33.60
71563;DHT22;59391;52.504;13.438;2022-09-01T14:32:42;25.20;33.30
71563;DHT22;59391;52.504;13.438;2022-09-01T14:35:08;25.20;33.60
71563;DHT22;59391;52.504;13.438;2022-09-01T14:37:36;25.20;33.60
71563;DHT22;59391;52.504;13.438;2022-09-01T14:40:03;25.20;33.60
71563;DHT22;59391;52.504;13.438;2022-09-01T14:42:30;25.20;33.10
71563;DHT22;59391;52.504;13.438;2022-09-01T14:44:55;25.30;33.40
71563;DHT22;59391;52.504;13.438;2022-09-01T14:47:21;25.30;33.20
71563;DHT22;59391;52.504;13.438;2022-09-01T14:49:51;25.30;32.60
71563;DHT22;59391;52.504;13.438;2022-09-01T14:52:17;25.30;32.80
71563;DHT22;59391;52.504;13.438;2022-09-01T14:54:44;25.30;33.10
71563;DHT22;59391;52.504;13.438;2022-09-01T14:57:10;25.30;32.90
71563;DHT22;59391;52.504;13.438;2022-09-01T14:59:35;25.30;32.70
71563;DHT22;59391;52.504;13.438;2022-09-01T15:02:02;25.20;32.50
71563;DHT22;59391;52.504;13.438;2022-09-01T15:04:29;25.20;32.70
71563;DHT22;59391;52.504;13.438;2022-09-01T15:06:55;25.20;33.00
71563;DHT22;59391;52.504;13.438;2022-09-01T15:09:21;25.20;32.90
71563;DHT22;59391;52.504;13.438;2022-09-01T15:11:47;25.20;33.00
71563;DHT22;59391;52.504;13.438;2022-09-01T15:14:13;25.20;32.80
71563;DHT22;59391;52.504;13.438;2022-09-01T15:16:39;25.30;33.40
71563;DHT22;59391;52.504;13.438;2022-09-01T15:19:11;25.30;33.60
71563;DHT22;59391;52.504;13.438;2022-09-01T15:21:39;25.20;32.00
71563;DHT22;59391;52.504;13.438;2022-09-01T15:24:08;25.20;31.90
71563;DHT22;59391;52.504;13.438;2022-09-01T15:26:35;25.30;32.80
71563;DHT22;59391;52.504;13.438;2022-09-01T15:29:03;25.30;32.50
71563;DHT22;59391;52.504;13.438;2022-09-01T15:31:30;25.30;32.30
71563;DHT22;59391;52.504;13.438;2022-09-01T15:33:59;25.30;32.40
71563;DHT22;59391;52.504;13.438;2022-09-01T15:36:27;25.40;32.40
71563;DHT22;59391;52.504;13.438;2022-09-01T15:38:55;25.40;32.60
71563;DHT22;59391;52.504;13.438;2022-09-01T15:41:25;25.40;33.00
71563;DHT22;59391;52.504;13.438;2022-09-01T15:43:52;25.40;33.30
71563;DHT22;59391;52.504;13.438;2022-09-01T15:46:19;25.40;33.40
71563;DHT22;59391;52.504;13.438;2022-09-01T15:48:46;25.30;33.40
71563;DHT22;59391;52.504;13.438;2022-09-01T15:53:52;25.30;33.40
71563;DHT22;59391;52.504;13.438;2022-09-01T15:56:20;25.30;33.30
71563;DHT22;59391;52.504;13.438;2022-09-01T15:58:47;25.20;33.40
71563;DHT22;59391;52.504;13.438;2022-09-01T16:01:15;25.20;33.20
71563;DHT22;59391;52.504;13.438;2022-09-01T16:03:42;25.10;33.50
71563;DHT22;59391;52.504;13.438;2022-09-01T16:06:08;25.10;33.50
71563;DHT22;59391;52.504;13.438;2022-09-01T16:08:35;25.00;33.50
71563;DHT22;59391;52.504;13.438;2022-09-01T16:11:05;25.00;33.60
71563;DHT22;59391;52.504;13.438;2022-09-01T16:13:36;25.00;33.60
71563;DHT22;59391;52.504;13.438;2022-09-01T16:22:28;24.90;33.40
71563;DHT22;59391;52.504;13.438;2022-09-01T16:25:10;24.90;33.60
71563;DHT22;59391;52.504;13.438;2022-09-01T16:27:41;24.90;33.60
71563;DHT22;59391;52.504;13.438;2022-09-01T16:30:14;24.80;33.50
71563;DHT22;59391;52.504;13.438;2022-09-01T16:32:47;24.80;33.70
71563;DHT22;59391;52.504;13.438;2022-09-01T16:35:14;24.70;33.60
71563;DHT22;59391;52.504;13.438;2022-09-01T16:37:59;24.70;33.90
71563;DHT22;59391;52.504;13.438;2022-09-01T16:43:58;24.50;33.60
71563;DHT22;59391;52.504;13.438;2022-09-01T16:50:08;24.40;33.70
71563;DHT22;59391;52.504;13.438;2022-09-01T16:53:09;24.30;34.00
71563;DHT22;59391;52.504;13.438;2022-09-01T16:55:56;24.20;34.00
71563;DHT22;59391;52.504;13.438;2022-09-01T17:06:58;24.00;34.70
71563;DHT22;59391;52.504;13.438;2022-09-01T17:09:38;24.00;34.60
71563;DHT22;59391;52.504;13.438;2022-09-01T17:12:46;24.00;34.70
71563;DHT22;59391;52.504;13.438;2022-09-01T17:15:51;23.90;35.20
71563;DHT22;59391;52.504;13.438;2022-09-01T17:21:10;23.90;35.00
71563;DHT22;59391;52.504;13.438;2022-09-01T17:23:49;23.80;35.00